Time;durP1;ratioP1;P1;durP2;ratioP2;P2;SDS_P1;SDS_P2;PMS_P1;PMS_P2;Temp;Humidity;BMP_temperature;BMP_pressure;BME280_temperature;BME280_humidity;BME280_pressure;Samples;Min_cycle;Max_cycle;Signal;HPM_P1;HPM_P2
2022/05/08 00:01:35;;;;;;;0.57;0.20;;;;;;;23.02;70.51;102332.38;5060456;28;20120;-69
2022/05/08 00:04:02;;;;;;;0.30;0.30;;;;;;;23.02;71.54;102332.38;5058713;28;20116;-69
2022/05/08 00:06:27;;;;;;;0.10;0.10;;;;;;;23.03;71.39;102331.34;5058516;28;20090;-69
2022/05/08 00:08:53;;;;;;;0.30;0.20;;;;;;;23.02;71.63;102324.13;5058750;28;20028;-70
2022/05/08 00:11:18;;;;;;;0.65;0.28;;;;;;;23.03;70.90;102325.84;5058331;28;20452;-69
2022/05/08 00:13:43;;;;;;;1.10;0.10;;;;;;;23.02;69.99;102329.63;5058543;28;20028;-69
2022/05/08 00:16:09;;;;;;;0.10;0.10;;;;;;;23.04;70.90;102341.28;5061697;28;20088;-68
2022/05/08 00:18:34;;;;;;;0.25;0.20;;;;;;;23.03;70.46;102346.94;5058729;28;20095;-70
2022/05/08 00:21:00;;;;;;;0.45;0.22;;;;;;;23.03;70.49;102353.28;5063813;28;20025;-69
2022/05/08 00:23:25;;;;;;;0.30;0.20;;;;;;;23.04;70.93;102352.25;5070629;28;20029;-69
2022/05/08 00:25:51;;;;;;;0.35;0.20;;;;;;;23.05;70.77;102353.97;5058587;28;20108;-69
2022/05/08 00:28:16;;;;;;;0.30;0.22;;;;;;;23.05;70.78;102356.72;5054150;28;20048;-69
2022/05/08 00:30:41;;;;;;;0.95;0.20;;;;;;;23.03;70.96;102364.25;5053729;28;20407;-69
2022/05/08 00:33:07;;;;;;;0.40;0.15;;;;;;;23.04;70.76;102368.72;5059483;28;20025;-69
2022/05/08 00:35:32;;;;;;;1.02;0.20;;;;;;;23.05;70.68;102377.81;5055077;28;20032;-69
2022/05/08 00:37:57;;;;;;;1.05;0.10;;;;;;;23.05;71.13;102378.66;5053763;28;20175;-69
2022/05/08 00:40:23;;;;;;;0.50;0.20;;;;;;;23.06;70.53;102385.00;5054922;28;20397;-69
2022/05/08 00:42:48;;;;;;;0.10;0.10;;;;;;;23.06;70.80;102385.88;5055063;28;20017;-69
2022/05/08 00:45:14;;;;;;;0.63;0.10;;;;;;;23.06;71.18;102387.75;5055010;28;20032;-69
2022/05/08 00:47:40;;;;;;;1.08;0.65;;;;;;;23.03;69.99;102391.69;5058474;28;20025;-69
2022/05/08 00:50:05;;;;;;;0.57;0.13;;;;;;;23.04;70.67;102382.44;5053567;28;20093;-69
2022/05/08 00:52:31;;;;;;;0.30;0.20;;;;;;;23.06;70.98;102385.88;5054640;28;20070;-69
2022/05/08 00:54:56;;;;;;;0.10;0.10;;;;;;;23.04;70.79;102382.44;5054855;28;20036;-69
2022/05/08 00:57:22;;;;;;;0.28;0.20;;;;;;;23.04;70.77;102376.94;5054621;28;20029;-69
2022/05/08 00:59:47;;;;;;;0.20;0.20;;;;;;;23.05;70.81;102384.16;5054717;28;20483;-69
2022/05/08 01:02:12;;;;;;;0.25;0.25;;;;;;;23.07;70.60;102394.94;5058519;28;20028;-69
2022/05/08 01:04:38;;;;;;;0.13;0.10;;;;;;;23.04;71.24;102385.19;5054592;28;20028;-69
2022/05/08 01:07:04;;;;;;;0.10;0.10;;;;;;;23.01;70.66;102388.25;5064905;28;20017;-69
2022/05/08 01:09:29;;;;;;;0.50;0.20;;;;;;;23.00;70.14;102397.47;5054420;28;20029;-69
2022/05/08 01:11:54;;;;;;;0.22;0.22;;;;;;;23.01;70.25;102399.22;5054395;28;20079;-69
2022/05/08 01:14:22;;;;;;;0.32;0.15;;;;;;;23.01;70.11;102398.34;5054301;28;20020;-69
2022/05/08 01:16:47;;;;;;;0.40;0.30;;;;;;;23.02;71.01;102406.44;5055381;28;20043;-69
2022/05/08 01:19:13;;;;;;;0.20;0.20;;;;;;;23.02;69.98;102411.91;5054364;28;20594;-69
2022/05/08 01:21:42;;;;;;;0.10;0.10;;;;;;;23.01;70.39;102415.69;5054266;28;20353;-69
2022/05/08 01:24:15;;;;;;;0.40;0.17;;;;;;;23.02;70.39;102411.06;5054274;28;20492;-69
2022/05/08 01:26:40;;;;;;;0.65;0.50;;;;;;;23.01;70.92;102407.47;5054136;28;20377;-69
2022/05/08 01:29:06;;;;;;;0.50;0.30;;;;;;;23.02;70.15;102411.91;5054178;28;20074;-69
2022/05/08 01:31:32;;;;;;;0.20;0.20;;;;;;;23.03;70.74;102412.78;5054712;28;20048;-69
2022/05/08 01:33:58;;;;;;;0.40;0.20;;;;;;;23.01;69.64;102412.94;5054366;28;20029;-69
2022/05/08 01:36:23;;;;;;;0.40;0.10;;;;;;;23.03;70.38;102418.25;5053852;28;20025;-69
2022/05/08 01:38:48;;;;;;;0.43;0.25;;;;;;;23.00;70.26;102413.94;5053900;28;20400;-69
2022/05/08 01:41:14;;;;;;;0.30;0.30;;;;;;;23.03;69.85;102429.22;5053883;28;20021;-69
2022/05/08 01:43:41;;;;;;;0.40;0.20;;;;;;;23.03;70.74;102421.00;5055582;28;20391;-68
2022/05/08 01:46:07;;;;;;;0.52;0.30;;;;;;;23.02;70.34;102420.16;5057660;28;20031;-69
2022/05/08 01:48:33;;;;;;;2.20;0.20;;;;;;;23.00;69.66;102419.41;5052394;28;20017;-69
2022/05/08 01:51:00;;;;;;;0.63;0.20;;;;;;;23.02;70.38;102427.53;5052341;28;20028;-69
2022/05/08 01:53:33;;;;;;;0.30;0.20;;;;;;;23.03;70.28;102419.13;5062890;28;20102;-69
2022/05/08 01:55:59;;;;;;;0.20;0.10;;;;;;;23.01;69.92;102431.25;5054482;28;20021;-69
2022/05/08 01:58:27;;;;;;;0.22;0.20;;;;;;;23.03;70.39;102441.06;5053416;28;20405;-69
2022/05/08 02:00:54;;;;;;;0.30;0.10;;;;;;;23.02;70.18;102433.84;5052313;28;20024;-69
2022/05/08 02:03:21;;;;;;;0.57;0.20;;;;;;;23.04;70.25;102441.91;5051949;28;20120;-69
2022/05/08 02:05:46;;;;;;;0.35;0.15;;;;;;;23.04;70.27;102442.78;5053484;28;20033;-69
2022/05/08 02:08:12;;;;;;;0.80;0.20;;;;;;;23.04;70.65;102448.25;5053233;28;20017;-69
2022/05/08 02:10:38;;;;;;;0.88;0.13;;;;;;;23.01;69.06;102454.09;5053235;28;20510;-69
2022/05/08 02:13:04;;;;;;;0.75;0.20;;;;;;;23.02;70.25;102450.31;5052008;28;20021;-69
2022/05/08 02:15:29;;;;;;;0.40;0.10;;;;;;;23.04;70.66;102453.75;5053126;28;20021;-69
2022/05/08 02:18:01;;;;;;;0.30;0.30;;;;;;;23.03;70.61;102452.03;5051975;28;20024;-69
2022/05/08 02:20:27;;;;;;;0.68;0.10;;;;;;;23.03;69.87;102451.19;5053543;28;20035;-69
2022/05/08 02:22:52;;;;;;;0.55;0.20;;;;;;;23.03;70.73;102452.03;5058214;28;20064;-69
2022/05/08 02:25:19;;;;;;;0.17;0.05;;;;;;;23.02;69.59;102450.31;5051715;28;20032;-69
2022/05/08 02:27:49;;;;;;;0.35;0.20;;;;;;;23.04;70.57;102453.75;5051609;28;20041;-69
2022/05/08 02:30:16;;;;;;;0.20;0.15;;;;;;;23.04;69.45;102452.91;5053259;28;20108;-69
2022/05/08 02:32:41;;;;;;;0.35;0.05;;;;;;;23.04;69.67;102453.75;5052997;28;20034;-69
2022/05/08 02:35:09;;;;;;;0.60;0.20;;;;;;;23.02;69.23;102455.81;5057546;28;20020;-69
2022/05/08 02:37:35;;;;;;;0.08;0.08;;;;;;;23.02;69.72;102455.81;5051766;28;20020;-69
2022/05/08 02:40:01;;;;;;;0.22;0.22;;;;;;;23.03;69.87;102457.53;5052941;28;20044;-69
2022/05/08 02:42:27;;;;;;;0.45;0.10;;;;;;;23.02;69.48;102461.28;5052617;28;20021;-69
2022/05/08 02:44:52;;;;;;;0.32;0.15;;;;;;;23.01;69.57;102465.06;5052850;28;20035;-69
2022/05/08 02:47:17;;;;;;;0.10;0.10;;;;;;;23.04;70.13;102470.22;5054101;28;20016;-69
2022/05/08 02:49:43;;;;;;;0.75;0.20;;;;;;;23.03;69.34;102468.50;5052138;28;20403;-69
2022/05/08 02:52:08;;;;;;;0.63;0.20;;;;;;;23.03;70.02;102463.00;5051639;28;20373;-69
2022/05/08 02:54:33;;;;;;;0.32;0.20;;;;;;;23.06;69.98;102464.56;5052522;28;20021;-69
2022/05/08 02:59:43;;;;;;;0.38;0.10;;;;;;;23.05;69.70;102487.53;5055641;28;20083;-69
2022/05/08 03:02:09;;;;;;;0.25;0.10;;;;;;;23.03;68.81;102484.94;5052591;28;20022;-69
2022/05/08 03:04:34;;;;;;;0.22;0.13;;;;;;;23.04;70.00;102488.56;5052391;28;20017;-69
2022/05/08 03:07:02;;;;;;;0.57;0.38;;;;;;;23.02;70.29;102466.78;5052573;28;20063;-69
2022/05/08 03:09:28;;;;;;;0.20;0.10;;;;;;;23.04;69.25;102481.19;5052599;28;20072;-69
2022/05/08 03:11:53;;;;;;;0.30;0.28;;;;;;;23.03;69.59;102473.97;5055978;28;20369;-69
2022/05/08 03:14:20;;;;;;;0.70;0.20;;;;;;;23.02;69.80;102488.72;5052282;28;20029;-69
2022/05/08 03:16:45;;;;;;;0.40;0.20;;;;;;;23.01;69.85;102487.00;5054175;28;20475;-68
2022/05/08 03:19:11;;;;;;;0.25;0.20;;;;;;;23.02;69.12;102491.47;5056872;28;20029;-69
2022/05/08 03:21:37;;;;;;;1.02;0.35;;;;;;;23.02;69.85;102488.72;5050963;28;20024;-69
2022/05/08 03:24:03;;;;;;;0.90;0.50;;;;;;;23.05;69.75;102487.53;5052420;28;20021;-69
2022/05/08 03:26:31;;;;;;;0.30;0.30;;;;;;;23.05;69.20;102490.28;5053618;28;20120;-67
2022/05/08 03:28:56;;;;;;;0.10;0.10;;;;;;;23.05;70.08;102488.38;5054710;28;20391;-69
2022/05/08 03:31:21;;;;;;;1.27;0.20;;;;;;;23.03;69.76;102484.94;5050795;28;20472;-69
2022/05/08 03:33:47;;;;;;;0.65;0.30;;;;;;;23.04;69.84;102503.13;5052213;28;20103;-69
2022/05/08 03:36:12;;;;;;;0.63;0.40;;;;;;;23.05;70.18;102499.34;5052173;28;20031;-69
2022/05/08 03:38:45;;;;;;;0.20;0.20;;;;;;;23.04;70.18;102502.28;5052121;28;20032;-69
2022/05/08 03:41:15;;;;;;;0.43;0.30;;;;;;;23.04;69.58;102503.13;5054335;28;20142;-69
2022/05/08 03:43:42;;;;;;;0.40;0.32;;;;;;;23.04;69.56;102518.72;5052147;28;20017;-69
2022/05/08 03:46:07;;;;;;;0.20;0.10;;;;;;;23.04;70.21;102519.59;5050894;28;20033;-69
2022/05/08 03:48:34;;;;;;;0.25;0.15;;;;;;;23.04;69.98;102518.72;5051952;28;20411;-69
2022/05/08 03:51:00;;;;;;;0.30;0.20;;;;;;;23.03;69.52;102522.50;5052067;28;20021;-69
2022/05/08 03:53:26;;;;;;;0.40;0.20;;;;;;;23.06;69.94;102527.66;5050574;28;20111;-69
2022/05/08 03:55:51;;;;;;;0.10;0.10;;;;;;;23.04;69.57;102525.06;5060634;28;20447;-69
2022/05/08 03:58:17;;;;;;;0.20;0.10;;;;;;;23.05;69.95;102525.94;5050722;28;20480;-69
2022/05/08 04:00:42;;;;;;;0.52;0.17;;;;;;;23.03;68.99;102527.97;5050972;28;20506;-69
2022/05/08 04:03:08;;;;;;;0.20;0.17;;;;;;;23.13;69.44;102533.34;5054586;28;20426;-69
2022/05/08 04:05:33;;;;;;;1.17;0.20;;;;;;;23.23;69.28;102540.44;5055634;28;20032;-69
2022/05/08 04:07:58;;;;;;;0.10;0.10;;;;;;;23.29;68.88;102544.41;5059163;28;20416;-70
2022/05/08 04:10:23;;;;;;;0.68;0.22;;;;;;;23.35;68.73;102538.28;5055581;28;20103;-69
2022/05/08 04:12:49;;;;;;;0.95;0.20;;;;;;;23.39;69.10;102535.03;5055461;28;20495;-69
2022/05/08 04:17:58;;;;;;;0.20;0.13;;;;;;;23.47;68.81;102536.94;5055553;28;20396;-69
2022/05/08 04:20:23;;;;;;;0.22;0.10;;;;;;;23.51;68.83;102537.47;5055310;28;20025;-69
2022/05/08 04:25:32;;;;;;;1.03;0.20;;;;;;;23.55;69.43;102552.59;5055211;28;20507;-69
2022/05/08 04:27:57;;;;;;;0.30;0.15;;;;;;;23.60;69.44;102553.84;5055148;28;20368;-69
2022/05/08 04:30:24;;;;;;;0.65;0.20;;;;;;;23.61;69.70;102554.72;5055220;28;20055;-68
2022/05/08 04:32:49;;;;;;;0.98;0.40;;;;;;;23.63;69.28;102555.41;5055188;28;20033;-69
2022/05/08 04:35:15;;;;;;;0.30;0.20;;;;;;;23.62;69.81;102560.03;5061900;28;20089;-68
2022/05/08 04:37:40;;;;;;;0.32;0.10;;;;;;;23.65;70.26;102562.44;5061350;28;20075;-69
2022/05/08 04:40:06;;;;;;;0.47;0.20;;;;;;;23.66;70.08;102566.91;5055392;28;20024;-69
2022/05/08 04:42:31;;;;;;;0.30;0.15;;;;;;;23.65;69.72;102562.44;5054892;28;20472;-69
2022/05/08 04:44:59;;;;;;;0.32;0.20;;;;;;;23.67;69.89;102565.88;5054992;28;20056;-69
2022/05/08 04:47:24;;;;;;;0.10;0.10;;;;;;;23.70;70.28;102554.59;5053529;28;20082;-69
2022/05/08 04:49:49;;;;;;;0.13;0.10;;;;;;;23.70;70.26;102554.59;5055209;28;20032;-69
2022/05/08 04:52:15;;;;;;;0.10;0.05;;;;;;;23.73;70.51;102555.28;5054748;28;20033;-69
2022/05/08 04:54:40;;;;;;;0.35;0.20;;;;;;;23.74;70.15;102565.25;5054906;28;20021;-69
2022/05/08 04:57:05;;;;;;;1.55;0.30;;;;;;;23.75;69.57;102561.47;5054805;28;20052;-69
2022/05/08 04:59:31;;;;;;;0.20;0.10;;;;;;;23.76;70.19;102558.56;5054633;28;20061;-69
2022/05/08 05:01:57;;;;;;;0.93;0.20;;;;;;;23.78;70.37;102561.13;5054711;28;20071;-69
2022/05/08 05:04:22;;;;;;;0.30;0.20;;;;;;;23.77;70.76;102564.91;5053186;28;20032;-69
2022/05/08 05:06:47;;;;;;;0.40;0.30;;;;;;;23.79;70.69;102552.72;5054749;28;20498;-69
2022/05/08 05:09:12;;;;;;;0.30;0.20;;;;;;;23.79;71.05;102558.22;5054582;28;20275;-69
2022/05/08 05:11:38;;;;;;;0.43;0.20;;;;;;;23.81;70.93;102560.78;5054320;28;20056;-69
2022/05/08 05:14:03;;;;;;;0.40;0.20;;;;;;;23.83;70.09;102564.22;5053966;28;20025;-69
2022/05/08 05:16:28;;;;;;;0.10;0.10;;;;;;;23.83;70.57;102558.72;5054297;28;20139;-69
2022/05/08 05:18:53;;;;;;;0.40;0.20;;;;;;;23.84;71.06;102566.81;5054417;28;20024;-69
2022/05/08 05:21:19;;;;;;;0.35;0.30;;;;;;;23.85;70.56;102568.56;5068275;28;20055;-69
2022/05/08 05:23:44;;;;;;;0.20;0.20;;;;;;;23.87;70.56;102571.13;5054294;28;20025;-69
2022/05/08 05:26:09;;;;;;;0.20;0.10;;;;;;;23.88;70.83;102572.84;5054116;28;20439;-69
2022/05/08 05:28:34;;;;;;;0.20;0.10;;;;;;;23.87;70.38;102565.63;5052865;28;20480;-69
2022/05/08 05:31:00;;;;;;;0.93;0.20;;;;;;;23.87;70.58;102577.47;5054037;28;20052;-69
2022/05/08 05:33:26;;;;;;;0.40;0.28;;;;;;;23.90;70.19;102577.16;5054007;28;20526;-69
2022/05/08 05:35:51;;;;;;;0.98;0.25;;;;;;;23.88;70.93;102573.72;5057732;28;20017;-69
2022/05/08 05:38:16;;;;;;;0.90;0.20;;;;;;;23.88;70.40;102579.19;5053978;28;20025;-69
2022/05/08 05:40:41;;;;;;;0.50;0.20;;;;;;;23.91;70.45;102584.34;5054467;28;20025;-69
2022/05/08 05:43:07;;;;;;;0.40;0.17;;;;;;;23.92;69.90;102590.72;5053972;28;20021;-69
2022/05/08 05:45:32;;;;;;;0.30;0.20;;;;;;;23.91;69.79;102589.00;5053707;28;20067;-69
2022/05/08 05:47:59;;;;;;;0.20;0.15;;;;;;;23.92;69.87;102591.56;5054074;28;20021;-69
2022/05/08 05:50:25;;;;;;;0.82;0.20;;;;;;;23.91;70.59;102589.84;5055263;28;20051;-69
2022/05/08 05:52:51;;;;;;;0.35;0.20;;;;;;;23.92;70.65;102591.56;5053693;28;20460;-69
2022/05/08 05:55:17;;;;;;;2.03;0.35;;;;;;;23.95;70.07;102593.13;5053640;28;20025;-69
2022/05/08 05:57:43;;;;;;;0.20;0.17;;;;;;;23.95;70.57;102593.97;5053980;28;20027;-69
2022/05/08 06:00:11;;;;;;;0.80;0.17;;;;;;;23.94;70.55;102606.00;5053622;28;20025;-69
2022/05/08 06:02:37;;;;;;;0.15;0.10;;;;;;;23.95;70.22;102609.59;5053455;28;20040;-68
2022/05/08 06:05:03;;;;;;;0.40;0.20;;;;;;;23.94;70.80;102606.00;5056541;28;20047;-69
2022/05/08 06:07:29;;;;;;;0.65;0.30;;;;;;;23.95;70.94;102606.84;5062740;28;20472;-68
2022/05/08 06:09:54;;;;;;;0.30;0.30;;;;;;;23.96;71.26;102611.31;5053431;28;20035;-69
2022/05/08 06:12:19;;;;;;;0.98;0.35;;;;;;;23.95;70.68;102606.84;5053139;28;20017;-68
2022/05/08 06:14:46;;;;;;;0.50;0.10;;;;;;;23.96;70.75;102616.81;5053344;28;20029;-68
2022/05/08 06:17:12;;;;;;;0.17;0.17;;;;;;;23.97;71.44;102611.16;5054921;28;20024;-69
2022/05/08 06:19:37;;;;;;;0.95;0.40;;;;;;;23.97;70.73;102621.28;5053151;28;20024;-69
2022/05/08 06:22:02;;;;;;;1.38;0.30;;;;;;;23.99;70.33;102624.72;5051898;28;20025;-69
2022/05/08 06:24:28;;;;;;;0.35;0.10;;;;;;;23.99;70.44;102630.22;5052207;28;20388;-69
2022/05/08 06:26:53;;;;;;;0.17;0.13;;;;;;;23.99;70.87;102630.22;5051690;28;20097;-69
2022/05/08 06:29:19;;;;;;;1.67;0.35;;;;;;;23.99;71.46;102627.47;5055433;28;20108;-67
2022/05/08 06:31:46;;;;;;;0.45;0.20;;;;;;;23.98;70.99;102626.59;5052109;28;20385;-69
2022/05/08 06:34:12;;;;;;;0.55;0.20;;;;;;;23.99;70.67;102630.22;5052989;28;20032;-69
2022/05/08 06:36:37;;;;;;;1.00;0.32;;;;;;;24.01;70.58;102628.16;5051882;28;20025;-69
2022/05/08 06:39:03;;;;;;;0.40;0.20;;;;;;;24.00;71.04;102629.19;5052860;28;20025;-69
2022/05/08 06:41:28;;;;;;;0.75;0.32;;;;;;;24.00;70.81;102621.81;5052714;28;20020;-69
2022/05/08 06:43:53;;;;;;;0.57;0.10;;;;;;;24.01;70.90;102625.41;5053978;28;20021;-69
2022/05/08 06:46:19;;;;;;;0.82;0.20;;;;;;;24.01;70.79;102623.53;5059832;28;20020;-68
2022/05/08 06:48:44;;;;;;;0.75;0.30;;;;;;;24.02;70.53;102624.41;5062881;28;20036;-69
2022/05/08 06:51:11;;;;;;;0.22;0.10;;;;;;;24.03;71.13;102631.63;5051425;28;20441;-68
2022/05/08 06:53:36;;;;;;;0.45;0.30;;;;;;;24.03;71.25;102634.38;5052632;28;20035;-69
2022/05/08 06:56:02;;;;;;;0.73;0.20;;;;;;;24.05;70.68;102634.19;5053535;28;20025;-68
2022/05/08 06:58:27;;;;;;;1.10;0.38;;;;;;;24.05;71.19;102628.72;5051085;28;20017;-69
2022/05/08 07:03:36;;;;;;;1.13;0.20;;;;;;;24.06;71.19;102631.28;5052467;28;20048;-68
2022/05/08 07:06:02;;;;;;;0.93;0.25;;;;;;;24.05;70.78;102637.81;5052613;28;20024;-69
2022/05/08 07:08:28;;;;;;;0.93;0.40;;;;;;;24.07;70.81;102640.38;5053185;28;20021;-68
2022/05/08 07:10:53;;;;;;;0.77;0.38;;;;;;;24.05;71.05;102646.06;5052429;28;20025;-69
2022/05/08 07:13:23;;;;;;;0.90;0.40;;;;;;;24.05;70.66;102637.81;5052334;28;20504;-69
2022/05/08 07:15:48;;;;;;;0.82;0.32;;;;;;;24.08;71.52;102633.88;5052704;28;20111;-69
2022/05/08 07:18:14;;;;;;;0.75;0.52;;;;;;;24.07;71.00;102638.50;5051136;28;20111;-69
2022/05/08 07:20:39;;;;;;;0.45;0.20;;;;;;;24.06;70.99;102645.03;5052302;28;20078;-68
2022/05/08 07:23:04;;;;;;;0.88;0.43;;;;;;;24.08;70.91;102640.22;5051902;28;20275;-69
2022/05/08 07:25:29;;;;;;;0.35;0.25;;;;;;;24.09;70.74;102647.44;5059646;28;20020;-69
2022/05/08 07:27:55;;;;;;;0.22;0.20;;;;;;;24.10;71.07;102653.78;5064779;28;20057;-69
2022/05/08 07:30:20;;;;;;;0.68;0.43;;;;;;;24.08;70.73;102651.22;5052144;28;20075;-69
2022/05/08 07:32:48;;;;;;;1.38;0.40;;;;;;;24.09;70.97;102658.44;5052241;28;20469;-68
2022/05/08 07:37:58;;;;;;;;;;;;;;;;;;5056778;28;20075;-69
2022/05/08 07:40:23;;;;;;;0.57;0.20;;;;;;;24.10;70.74;102654.66;5056057;28;19912;-69
2022/05/08 07:42:48;;;;;;;0.30;0.30;;;;;;;24.10;70.90;102670.28;5056233;28;20021;-69
2022/05/08 07:45:13;;;;;;;1.02;0.52;;;;;;;24.09;70.61;102663.06;5054810;28;20028;-69
2022/05/08 07:47:39;;;;;;;0.70;0.25;;;;;;;24.09;70.92;102674.06;5057684;28;20021;-69
2022/05/08 07:50:06;;;;;;;1.45;0.20;;;;;;;24.10;71.21;102671.13;5055095;28;20479;-69
2022/05/08 07:52:31;;;;;;;0.70;0.30;;;;;;;24.13;71.17;102670.78;5055784;28;20032;-68
2022/05/08 07:54:56;;;;;;;1.00;0.40;;;;;;;24.12;71.07;102669.06;5054727;28;20021;-68
2022/05/08 07:57:21;;;;;;;0.40;0.10;;;;;;;;;;5055800;28;20024;-68
2022/05/08 07:59:48;;;;;;;0.57;0.33;;;;;;;24.13;70.96;102680.94;5056216;28;20449;-69
2022/05/08 08:02:13;;;;;;;1.30;0.30;;;;;;;24.14;71.04;102683.50;5058245;28;20480;-69
2022/05/08 08:04:38;;;;;;;0.30;0.20;;;;;;;24.13;71.16;102692.78;5055800;28;20025;-69
2022/05/08 08:07:04;;;;;;;1.40;0.20;;;;;;;24.15;71.48;102690.72;5055802;28;20052;-69
2022/05/08 08:09:29;;;;;;;0.60;0.20;;;;;;;24.16;71.28;102691.59;5055551;28;20468;-69
2022/05/08 08:11:55;;;;;;;0.28;0.10;;;;;;;24.17;70.99;102696.91;5065726;28;20033;-69
2022/05/08 08:14:20;;;;;;;0.30;0.30;;;;;;;24.17;70.76;102699.66;5054197;28;20456;-69
2022/05/08 08:16:46;;;;;;;0.50;0.30;;;;;;;24.17;70.97;102701.53;5055955;28;20031;-69
2022/05/08 08:19:11;;;;;;;1.52;0.35;;;;;;;24.16;71.41;102692.44;5054276;28;20071;-69
2022/05/08 08:21:36;;;;;;;0.20;0.20;;;;;;;24.16;71.50;102692.44;5055416;28;20514;-69
2022/05/08 08:24:02;;;;;;;0.10;0.05;;;;;;;24.18;71.38;102698.63;5055525;28;20111;-69
2022/05/08 08:26:27;;;;;;;1.00;0.30;;;;;;;24.16;70.72;102692.44;5055055;28;20079;-69
2022/05/08 08:28:52;;;;;;;0.32;0.30;;;;;;;24.18;71.05;102695.88;5054361;28;20049;-69
2022/05/08 08:31:18;;;;;;;0.10;0.10;;;;;;;24.19;71.59;102707.78;5055274;28;20025;-69
2022/05/08 08:33:44;;;;;;;0.30;0.30;;;;;;;24.18;71.48;102701.38;5055316;28;20025;-69
2022/05/08 08:36:10;;;;;;;0.82;0.10;;;;;;;24.19;71.34;102697.63;5055301;28;20070;-69
2022/05/08 08:38:36;;;;;;;0.22;0.13;;;;;;;24.17;71.25;102691.41;5055309;28;20029;-69
2022/05/08 08:41:04;;;;;;;0.17;0.13;;;;;;;24.19;70.72;102707.78;5055234;28;20090;-69
2022/05/08 08:43:31;;;;;;;0.15;0.15;;;;;;;24.19;71.30;102708.63;5056861;28;20017;-69
2022/05/08 08:48:58;;;;;;;0.10;0.10;;;;;;;24.21;71.63;102705.72;4992301;28;20110;-69
2022/05/08 08:51:23;;;;;;;0.32;0.15;;;;;;;24.21;70.54;102706.56;4992937;28;20105;-69
2022/05/08 08:53:49;;;;;;;0.73;0.22;;;;;;;24.21;70.69;102703.81;4993287;28;20117;-69
2022/05/08 08:56:17;;;;;;;0.20;0.10;;;;;;;24.21;70.85;102703.81;4993156;28;20393;-69
2022/05/08 08:58:43;;;;;;;0.10;0.10;;;;;;;24.21;70.89;102701.06;4994100;28;20030;-68
2022/05/08 09:01:08;;;;;;;1.13;0.20;;;;;;;24.23;70.78;102703.66;4993150;28;20076;-68
2022/05/08 09:03:33;;;;;;;0.10;0.10;;;;;;;24.20;71.28;102707.59;4992917;28;20057;-69
2022/05/08 09:06:02;;;;;;;0.65;0.10;;;;;;;24.21;71.20;102712.06;4992982;28;20408;-69
2022/05/08 09:08:32;;;;;;;0.15;0.15;;;;;;;24.22;70.83;102708.28;4976493;28;20027;-69
2022/05/08 09:10:58;;;;;;;0.22;0.20;;;;;;;24.21;70.80;102706.56;4995355;28;20064;-68
2022/05/08 09:13:30;;;;;;;0.32;0.20;;;;;;;24.24;71.02;102728.22;4992713;28;20065;-69
2022/05/08 09:16:04;;;;;;;0.68;0.22;;;;;;;24.23;71.34;102721.00;4992846;28;20648;-69
2022/05/08 09:18:42;;;;;;;0.75;0.20;;;;;;;24.25;70.93;102724.44;4976551;28;20378;-69
2022/05/08 09:24:06;;;;;;;0.20;0.10;;;;;;;24.24;70.74;102728.22;5005649;28;20133;-68
2022/05/08 09:26:31;;;;;;;0.30;0.20;;;;;;;24.25;70.87;102723.59;5060427;28;20044;-69
2022/05/08 09:28:56;;;;;;;0.47;0.30;;;;;;;24.24;71.18;102727.38;5062925;28;20033;-69
2022/05/08 09:31:22;;;;;;;0.20;0.10;;;;;;;24.25;70.88;102729.06;5053965;28;20062;-69
2022/05/08 09:33:51;;;;;;;0.17;0.17;;;;;;;24.23;71.46;102743.00;5054176;28;20029;-69
2022/05/08 09:36:17;;;;;;;0.35;0.10;;;;;;;24.24;71.15;102738.34;5052740;28;20555;-69
2022/05/08 09:38:45;;;;;;;0.98;0.20;;;;;;;24.26;71.29;102737.16;5054650;28;20021;-69
2022/05/08 09:41:11;;;;;;;0.75;0.30;;;;;;;24.24;71.61;102733.72;5054230;28;20025;-69
2022/05/08 09:43:37;;;;;;;0.68;0.20;;;;;;;24.26;70.86;102734.41;5054427;28;20025;-69
2022/05/08 09:46:04;;;;;;;0.45;0.10;;;;;;;24.25;71.14;102740.06;5054008;28;20036;-69
2022/05/08 09:48:33;;;;;;;0.75;0.20;;;;;;;24.27;70.84;102743.50;5052534;28;20029;-69
2022/05/08 09:51:04;;;;;;;0.20;0.20;;;;;;;24.26;71.10;102748.16;5053628;28;20396;-69
2022/05/08 09:53:31;;;;;;;0.22;0.20;;;;;;;24.25;71.22;102738.19;5052789;28;20457;-69
2022/05/08 09:55:58;;;;;;;0.47;0.13;;;;;;;24.24;70.76;102744.72;5053732;28;20029;-69
2022/05/08 09:58:24;;;;;;;0.10;0.10;;;;;;;24.26;71.04;102742.66;5053520;28;20028;-69
2022/05/08 10:00:54;;;;;;;0.35;0.30;;;;;;;24.26;71.08;102748.16;5053596;28;20387;-69
2022/05/08 10:03:20;;;;;;;0.40;0.25;;;;;;;24.26;71.33;102744.53;5053426;28;20053;-69
2022/05/08 10:05:46;;;;;;;0.45;0.10;;;;;;;24.27;71.00;102749.88;5055326;28;20056;-68
2022/05/08 10:08:18;;;;;;;0.30;0.10;;;;;;;24.26;70.92;102753.66;5053494;28;20039;-69
2022/05/08 10:13:54;;;;;;;0.60;0.20;;;;;;;24.27;70.74;102760.00;5063759;28;20064;-69
2022/05/08 10:16:51;;;;;;;1.08;0.32;;;;;;;24.28;70.73;102762.59;5053171;28;20472;-69
2022/05/08 10:19:16;;;;;;;0.50;0.20;;;;;;;24.28;71.42;102757.09;5053248;28;20052;-69
2022/05/08 10:22:13;;;;;;;0.20;0.10;;;;;;;24.30;70.82;102759.72;5053309;28;20455;-68
2022/05/08 10:24:47;;;;;;;0.17;0.10;;;;;;;24.28;71.05;102756.22;5040745;28;20274;-69
2022/05/08 10:27:31;;;;;;;0.32;0.13;;;;;;;24.28;71.08;102762.59;5051658;28;20487;-69
2022/05/08 10:29:56;;;;;;;0.43;0.20;;;;;;;24.28;71.01;102776.34;5053154;28;20491;-69
2022/05/08 10:32:33;;;;;;;0.50;0.10;;;;;;;24.30;70.63;102782.56;5056204;28;20074;-69
2022/05/08 10:35:22;;;;;;;0.30;0.20;;;;;;;24.30;70.78;102771.56;5053053;28;20265;-69
2022/05/08 10:38:00;;;;;;;0.10;0.10;;;;;;;24.30;70.80;102774.31;5051568;28;20025;-69
2022/05/08 10:40:28;;;;;;;0.30;0.28;;;;;;;24.30;70.74;102763.31;5052795;28;20029;-69
2022/05/08 10:42:57;;;;;;;0.30;0.08;;;;;;;24.29;70.88;102772.59;5052973;28;20025;-69
2022/05/08 10:45:32;;;;;;;0.52;0.10;;;;;;;24.30;71.04;102771.56;5055403;28;20040;-69
2022/05/08 10:48:03;;;;;;;0.10;0.10;;;;;;;24.30;70.54;102788.06;5052847;28;20063;-69
2022/05/08 10:50:28;;;;;;;0.20;0.10;;;;;;;24.32;70.80;102779.63;5052714;28;20053;-69
2022/05/08 10:52:54;;;;;;;0.43;0.38;;;;;;;24.32;71.27;102784.28;5052671;28;20496;-69
2022/05/08 10:55:19;;;;;;;0.20;0.20;;;;;;;24.30;71.24;102782.56;5053080;28;20103;-69
2022/05/08 10:57:47;;;;;;;0.60;0.20;;;;;;;24.30;71.03;102774.31;5054913;28;20058;-68
2022/05/08 11:00:20;;;;;;;0.30;0.28;;;;;;;24.30;70.90;102793.53;5060159;28;20072;-69
2022/05/08 11:02:51;;;;;;;0.10;0.10;;;;;;;24.32;70.78;102795.28;5052621;28;20025;-69
2022/05/08 11:05:19;;;;;;;1.35;0.20;;;;;;;24.32;70.65;102796.13;5051187;28;20021;-69
2022/05/08 11:08:06;;;;;;;0.20;0.20;;;;;;;24.32;71.16;102800.78;5052556;28;20036;-69
2022/05/08 11:10:37;;;;;;;0.40;0.40;;;;;;;24.34;71.08;102804.22;5051951;28;20017;-69
2022/05/08 11:13:05;;;;;;;0.75;0.30;;;;;;;24.32;71.25;102801.63;5054302;28;20017;-69
2022/05/08 11:15:37;;;;;;;0.20;0.20;;;;;;;24.33;71.17;102794.25;5052306;28;20025;-69
2022/05/08 11:18:17;;;;;;;0.13;0.10;;;;;;;24.34;70.86;102804.22;5052482;28;20074;-69
2022/05/08 11:20:51;;;;;;;0.20;0.10;;;;;;;24.35;71.23;102805.94;5052672;28;20075;-69
2022/05/08 11:23:21;;;;;;;0.55;0.20;;;;;;;24.35;70.80;102814.19;5051021;28;20439;-69
2022/05/08 11:25:47;;;;;;;0.40;0.17;;;;;;;24.34;71.28;102823.44;5055416;28;20029;-69
2022/05/08 11:28:14;;;;;;;0.17;0.10;;;;;;;24.32;70.55;102823.63;5052173;28;20162;-68
2022/05/08 11:30:40;;;;;;;0.30;0.20;;;;;;;24.32;70.68;102817.25;5052173;28;20028;-69
2022/05/08 11:36:04;;;;;;;0.30;0.30;;;;;;;24.36;70.53;102824.19;5052518;28;20075;-69
2022/05/08 11:38:53;;;;;;;0.10;0.10;;;;;;;24.35;70.99;102830.66;5052057;28;20049;-69
2022/05/08 11:41:19;;;;;;;0.40;0.30;;;;;;;24.34;70.49;102826.19;5053115;28;20460;-68
2022/05/08 11:43:47;;;;;;;0.57;0.20;;;;;;;24.34;71.21;102826.19;5052172;28;20025;-69
2022/05/08 11:46:17;;;;;;;0.90;0.10;;;;;;;24.34;70.56;102842.69;5066913;28;20043;-68
2022/05/08 11:48:44;;;;;;;0.63;0.30;;;;;;;24.32;70.83;102839.25;5057485;28;20021;-69
2022/05/08 11:51:10;;;;;;;0.60;0.40;;;;;;;24.29;70.98;102835.81;5050729;28;20106;-69